createdAt,value
2023-04-23T00:00:34.453Z,37
2023-04-23T00:15:32.203Z,37
2023-04-23T00:30:32.823Z,38
2023-04-23T00:45:32.311Z,38
2023-04-23T01:00:32.957Z,38
2023-04-23T01:15:32.911Z,39
2023-04-23T01:30:32.302Z,39
2023-04-23T01:45:32.089Z,39
2023-04-23T02:00:32.494Z,40
2023-04-23T02:15:32.184Z,40
2023-04-23T02:30:32.199Z,40
2023-04-23T02:45:32.201Z,40
2023-04-23T03:00:32.910Z,40
2023-04-23T03:15:32.604Z,40
2023-04-23T03:30:32.931Z,40
2023-04-23T03:45:32.012Z,40
2023-04-23T04:00:32.265Z,40
2023-04-23T04:15:32.618Z,40
2023-04-23T04:30:32.337Z,41
2023-04-23T04:45:32.894Z,41
2023-04-23T05:00:32.700Z,42
2023-04-23T05:15:32.782Z,42
2023-04-23T05:30:32.482Z,42
2023-04-23T05:45:32.304Z,42
2023-04-23T06:00:33.488Z,43
2023-04-23T06:15:32.326Z,43
2023-04-23T06:30:32.299Z,43
2023-04-23T06:45:32.226Z,43
2023-04-23T07:00:33.467Z,44
2023-04-23T07:15:32.521Z,44
2023-04-23T07:30:33.905Z,44
2023-04-23T07:45:32.085Z,44
2023-04-23T08:00:32.920Z,44
2023-04-23T08:15:32.756Z,45
2023-04-23T08:30:33.344Z,45
2023-04-23T08:45:33.033Z,45
2023-04-23T09:00:33.594Z,45
2023-04-23T09:15:32.499Z,45
2023-04-23T09:30:32.699Z,45
2023-04-23T09:45:32.552Z,45
2023-04-23T10:00:33.557Z,45
2023-04-23T10:15:32.444Z,46
2023-04-23T10:30:33.032Z,46
2023-04-23T10:45:32.777Z,46
2023-04-23T11:00:33.471Z,46
2023-04-23T11:15:32.793Z,46
2023-04-23T11:30:32.467Z,46
2023-04-23T11:45:32.739Z,46
2023-04-23T12:00:33.259Z,45
2023-04-23T12:15:33.104Z,45
2023-04-23T12:30:32.962Z,45
2023-04-23T12:45:32.157Z,45
2023-04-23T13:00:32.460Z,45
2023-04-23T13:15:32.134Z,45
2023-04-23T13:30:34.088Z,45
2023-04-23T13:45:32.516Z,45
2023-04-23T14:00:33.701Z,45
2023-04-23T14:15:32.735Z,45
2023-04-23T14:30:33.559Z,44
2023-04-23T14:45:32.175Z,44
2023-04-23T15:00:32.679Z,44
2023-04-23T15:15:43.576Z,44
2023-04-23T15:30:33.749Z,44
2023-04-23T15:45:32.795Z,44
2023-04-23T16:00:34.017Z,44
2023-04-23T16:15:32.590Z,44
2023-04-23T16:30:32.616Z,45
2023-04-23T16:45:32.628Z,45
2023-04-23T17:00:33.754Z,45
2023-04-23T17:15:32.568Z,45
2023-04-23T17:30:33.332Z,45
2023-04-23T17:45:32.136Z,45
2023-04-23T18:00:33.681Z,45
2023-04-23T18:15:32.070Z,45
2023-04-23T18:30:32.666Z,45
2023-04-23T18:45:32.437Z,45
2023-04-23T19:00:32.338Z,45
2023-04-23T19:15:33.065Z,45
2023-04-23T19:30:32.292Z,45
2023-04-23T19:45:32.945Z,45
2023-04-23T20:00:32.203Z,45
2023-04-23T20:15:32.875Z,45
2023-04-23T20:30:32.635Z,45
2023-04-23T20:45:32.580Z,45
2023-04-23T21:00:32.938Z,45
2023-04-23T21:15:32.211Z,45
2023-04-23T21:30:32.313Z,45
2023-04-23T21:45:32.191Z,45
2023-04-23T22:00:33.208Z,45
2023-04-23T22:15:32.086Z,45
2023-04-23T22:30:32.194Z,45
2023-04-23T22:45:32.450Z,45
2023-04-23T23:00:32.223Z,45
2023-04-23T23:15:32.204Z,45
2023-04-23T23:30:32.075Z,45
2023-04-23T23:45:32.750Z,44
